createdAt,value
2023-03-05T00:23:09.755Z,101147.39
2023-03-05T00:27:23.901Z,101138.65
2023-03-05T00:31:54.259Z,101136.16
2023-03-05T00:49:00.837Z,101102.41
2023-03-05T00:53:29.805Z,101098.36
2023-03-05T00:57:59.134Z,101100.06
2023-03-05T01:02:27.340Z,101093.06
2023-03-05T01:24:06.602Z,101049.36
2023-03-05T01:28:36.018Z,101046.04
2023-03-05T01:33:07.080Z,101042.54
2023-03-05T01:37:37.737Z,101028.59
2023-03-05T01:59:07.585Z,101006.57
2023-03-05T02:03:36.908Z,101006.41
2023-03-05T02:08:06.233Z,101005.55
2023-03-05T02:12:35.437Z,100991.59
2023-03-05T02:16:50.177Z,100986.49
2023-03-05T02:21:25.582Z,100976.86
2023-03-05T02:26:00.669Z,100968.66
2023-03-05T02:39:36.393Z,100940.00
2023-03-05T02:44:05.644Z,100931.43
2023-03-05T02:48:34.982Z,100923.73
2023-03-05T03:10:07.737Z,100900.37
2023-03-05T03:14:37.033Z,100892.39
2023-03-05T03:22:57.332Z,100882.94
2023-03-05T03:27:27.643Z,100877.59
2023-03-05T03:53:26.841Z,100824.27
2023-03-05T03:57:56.153Z,100815.47
2023-03-05T04:19:35.352Z,100778.27
2023-03-05T04:24:04.431Z,100771.21
2023-03-05T04:28:15.490Z,100767.28
2023-03-05T04:54:28.861Z,100733.10
2023-03-05T04:58:39.300Z,100729.61
2023-03-05T05:32:50.216Z,100720.65
2023-03-05T05:37:02.138Z,100719.76
2023-03-05T05:41:27.942Z,100722.20
2023-03-05T05:45:31.262Z,100721.71
2023-03-05T06:06:58.756Z,100716.12
2023-03-05T06:11:18.929Z,100714.62
2023-03-05T06:15:41.835Z,100716.02
2023-03-05T06:44:32.762Z,100726.77
2023-03-05T06:48:37.698Z,100726.21
2023-03-05T06:53:05.809Z,100728.75
2023-03-05T06:57:35.186Z,100740.02
2023-03-05T07:02:04.297Z,100741.95
2023-03-05T07:06:33.537Z,100743.48
2023-03-05T07:10:40.756Z,100739.74
2023-03-05T07:14:51.338Z,100739.02
2023-03-05T07:19:14.252Z,100737.84
2023-03-05T07:23:10.014Z,100744.15
2023-03-05T07:27:28.537Z,100748.42
2023-03-05T07:57:30.831Z,100734.97
2023-03-05T08:01:40.509Z,100742.95
2023-03-05T08:06:02.451Z,100744.84
2023-03-05T08:10:22.899Z,100748.40
2023-03-05T08:31:21.617Z,100755.55
2023-03-05T08:35:40.373Z,100752.15
2023-03-05T08:39:52.730Z,100751.63
2023-03-05T09:13:54.474Z,100749.41
2023-03-05T09:18:23.063Z,100748.35
2023-03-05T09:22:39.738Z,100751.04
2023-03-05T09:27:08.876Z,100753.67
2023-03-05T09:31:27.419Z,100751.61
2023-03-05T09:35:47.266Z,100753.80
2023-03-05T09:40:04.838Z,100749.14
2023-03-05T09:44:35.979Z,100753.19
2023-03-05T09:53:29.101Z,100750.65
2023-03-05T09:57:55.362Z,100743.35
2023-03-05T10:15:26.459Z,100728.33
2023-03-05T10:19:45.756Z,100719.92
2023-03-05T10:24:33.206Z,100720.64
2023-03-05T10:29:10.519Z,100721.52
2023-03-05T10:33:44.378Z,100719.59
2023-03-05T10:38:12.592Z,100716.90
2023-03-05T10:42:48.171Z,100711.29
2023-03-05T10:47:17.504Z,100705.30
2023-03-05T10:51:50.845Z,100702.35
2023-03-05T10:56:07.420Z,100707.60
2023-03-05T11:00:37.710Z,100704.58
2023-03-05T11:04:56.093Z,100704.90
2023-03-05T11:09:29.340Z,100701.19
2023-03-05T11:13:38.571Z,100699.64
2023-03-05T11:18:07.245Z,100700.34
2023-03-05T11:35:17.035Z,100688.29
2023-03-05T11:39:49.343Z,100682.08
2023-03-05T11:44:12.451Z,100671.21
2023-03-05T12:11:20.490Z,100689.92
2023-03-05T12:38:27.129Z,100674.63
2023-03-05T12:43:09.132Z,100672.08
2023-03-05T12:47:50.595Z,100663.34
2023-03-05T12:52:27.237Z,100659.63
2023-03-05T12:57:02.092Z,100662.34
2023-03-05T13:01:34.919Z,100660.21
2023-03-05T14:02:19.638Z,100614.30
2023-03-05T14:06:32.402Z,100612.62
2023-03-05T14:11:14.533Z,100611.45
2023-03-05T14:15:33.636Z,100601.12
2023-03-05T14:20:15.529Z,100596.99
2023-03-05T14:24:39.024Z,100599.55
2023-03-05T14:29:07.483Z,100596.63
2023-03-05T15:09:42.376Z,100585.02
2023-03-05T15:13:56.863Z,100586.29
2023-03-05T15:18:28.441Z,100588.98
2023-03-05T15:22:50.526Z,100584.98
2023-03-05T15:27:13.014Z,100594.14
2023-03-05T15:31:41.264Z,100594.30
2023-03-05T15:36:09.078Z,100597.52
2023-03-05T15:40:28.085Z,100595.51
2023-03-05T16:02:16.529Z,100578.08
2023-03-05T16:06:33.395Z,100579.63
2023-03-05T16:11:02.367Z,100577.69
2023-03-05T16:15:31.843Z,100570.32
2023-03-05T16:19:46.206Z,100569.91
2023-03-05T16:24:08.063Z,100567.45
2023-03-05T16:28:44.010Z,100568.87
2023-03-05T16:51:32.818Z,100557.87
2023-03-05T16:56:04.032Z,100561.84
2023-03-05T17:00:34.903Z,100570.32
2023-03-05T17:05:05.803Z,100566.80
2023-03-05T17:30:41.844Z,100553.73
2023-03-05T17:35:11.602Z,100553.52
2023-03-05T17:39:30.066Z,100558.70
2023-03-05T17:44:00.822Z,100563.24
2023-03-05T17:48:12.208Z,100558.85
2023-03-05T18:09:54.791Z,100555.64
2023-03-05T18:14:24.009Z,100556.46
2023-03-05T18:18:37.262Z,100553.48
2023-03-05T18:27:16.364Z,100551.50
2023-03-05T18:48:56.638Z,100538.45
2023-03-05T18:53:26.188Z,100541.23
2023-03-05T18:57:49.626Z,100539.16
2023-03-05T19:15:24.056Z,100535.64
2023-03-05T19:19:53.957Z,100537.00
2023-03-05T19:24:26.280Z,100539.91
2023-03-05T19:28:57.094Z,100539.16
2023-03-05T19:50:17.127Z,100527.77
2023-03-05T19:54:50.179Z,100525.75
2023-03-05T20:17:48.133Z,100518.35
2023-03-05T20:22:18.722Z,100511.42
2023-03-05T20:26:50.728Z,100510.23
2023-03-05T20:48:58.675Z,100503.02
2023-03-05T20:53:29.785Z,100502.72
2023-03-05T20:57:59.474Z,100499.31
2023-03-05T21:14:43.886Z,100484.06
2023-03-05T21:19:13.273Z,100483.91
2023-03-05T21:23:22.917Z,100478.23
2023-03-05T21:27:52.157Z,100477.40
2023-03-05T21:32:21.439Z,100472.92
2023-03-05T21:58:25.409Z,100457.30
2023-03-05T22:02:49.428Z,100455.79
2023-03-05T22:30:53.289Z,100433.38
2023-03-05T22:35:22.515Z,100429.09
2023-03-05T22:39:51.801Z,100416.98
2023-03-05T22:44:24.892Z,100414.41
2023-03-05T23:10:03.900Z,100405.58
2023-03-05T23:14:33.157Z,100404.02
2023-03-05T23:36:23.267Z,100380.28
2023-03-05T23:40:52.680Z,100382.54
2023-03-05T23:45:21.944Z,100381.67
